Time;durP1;ratioP1;P1;durP2;ratioP2;P2;SDS_P1;SDS_P2;PMS_P1;PMS_P2;Temp;Humidity;BMP_temperature;BMP_pressure;BME280_temperature;BME280_humidity;BME280_pressure;Samples;Min_cycle;Max_cycle;Signal;HPM_P1;HPM_P2
2022/08/03 00:01:04;;;;;;;4.03;2.65;;;18.90;99.90;;;;;;5052273;28;20047;-73
2022/08/03 00:03:30;;;;;;;2.85;1.85;;;18.90;99.90;;;;;;5058410;28;20619;-76
2022/08/03 00:05:56;;;;;;;2.80;1.85;;;18.90;99.90;;;;;;5052990;28;20049;-75
2022/08/03 00:08:21;;;;;;;3.13;2.10;;;18.80;99.90;;;;;;5052774;28;20025;-72
2022/08/03 00:10:47;;;;;;;2.90;1.88;;;18.90;99.90;;;;;;5069106;28;20057;-76
2022/08/03 00:13:12;;;;;;;2.42;1.95;;;18.80;99.90;;;;;;5062287;28;20056;-83
2022/08/03 00:15:40;;;;;;;2.63;1.90;;;18.80;99.90;;;;;;5063980;28;20058;-79
2022/08/03 00:18:05;;;;;;;2.15;1.95;;;18.90;99.90;;;;;;5067571;28;20029;-77
2022/08/03 00:20:31;;;;;;;6.38;2.05;;;18.90;99.90;;;;;;5055287;28;20032;-77
2022/08/03 00:22:56;;;;;;;2.75;1.98;;;19.00;99.90;;;;;;5053387;28;20032;-78
2022/08/03 00:25:22;;;;;;;3.15;1.58;;;19.00;99.90;;;;;;5053319;28;20046;-77
2022/08/03 00:27:47;;;;;;;3.47;2.15;;;19.00;99.90;;;;;;5056649;28;20027;-77
2022/08/03 00:30:13;;;;;;;2.78;1.70;;;19.00;99.90;;;;;;5066769;28;20114;-77
2022/08/03 00:32:38;;;;;;;3.80;1.90;;;19.00;99.90;;;;;;5060297;28;20036;-77
2022/08/03 00:35:04;;;;;;;2.83;1.73;;;19.10;99.90;;;;;;5063944;28;20044;-78
2022/08/03 00:37:30;;;;;;;3.22;1.70;;;19.10;99.90;;;;;;5059522;28;20440;-78
2022/08/03 00:39:55;;;;;;;1.55;1.45;;;19.10;99.90;;;;;;5055785;28;20119;-77
2022/08/03 00:42:21;;;;;;;2.00;1.77;;;19.10;99.90;;;;;;5072035;28;20122;-78
2022/08/03 00:44:46;;;;;;;3.83;2.20;;;19.10;99.90;;;;;;5064238;28;20029;-78
2022/08/03 00:47:12;;;;;;;2.20;1.60;;;19.10;99.90;;;;;;5052586;28;20134;-78
2022/08/03 00:49:38;;;;;;;1.88;1.70;;;19.10;99.90;;;;;;5051816;28;20036;-78
2022/08/03 00:52:05;;;;;;;2.63;1.65;;;19.10;99.90;;;;;;5054930;28;20498;-78
2022/08/03 00:54:32;;;;;;;2.35;1.70;;;19.10;99.90;;;;;;5058984;28;20067;-78
2022/08/03 00:56:57;;;;;;;1.95;1.70;;;19.10;99.90;;;;;;5056895;28;20037;-78
2022/08/03 00:59:23;;;;;;;3.72;2.10;;;19.10;99.90;;;;;;5050151;28;20036;-78
2022/08/03 01:01:48;;;;;;;2.33;1.70;;;19.00;99.90;;;;;;5054836;28;20107;-78
2022/08/03 01:04:14;;;;;;;3.20;1.73;;;19.00;99.90;;;;;;5052389;28;20438;-78
2022/08/03 01:06:51;;;;;;;2.40;1.67;;;19.00;99.90;;;;;;5054904;28;20373;-78
2022/08/03 01:09:24;;;;;;;2.70;2.30;;;18.90;99.90;;;;;;5052375;28;20041;-79
2022/08/03 01:12:09;;;;;;;2.90;2.00;;;18.80;99.90;;;;;;5058785;28;20036;-79
2022/08/03 01:14:44;;;;;;;3.00;2.38;;;18.80;99.90;;;;;;5051408;28;20029;-79
2022/08/03 01:17:38;;;;;;;1.98;1.73;;;18.80;99.90;;;;;;5051923;28;20107;-78
2022/08/03 01:20:08;;;;;;;1.80;1.70;;;18.70;99.90;;;;;;5052254;28;20113;-78
2022/08/03 01:22:56;;;;;;;2.47;2.08;;;18.70;99.90;;;;;;5050834;28;20036;-77
2022/08/03 01:25:59;;;;;;;3.20;1.85;;;18.60;99.90;;;;;;5064910;28;20369;-78
2022/08/03 01:28:47;;;;;;;3.00;1.75;;;18.70;99.90;;;;;;5067094;28;20033;-78
2022/08/03 01:31:17;;;;;;;2.53;1.90;;;18.70;99.90;;;;;;5052359;28;20037;-79
2022/08/03 01:33:49;;;;;;;2.10;1.90;;;18.70;99.90;;;;;;5053350;28;20028;-78
2022/08/03 01:36:21;;;;;;;2.75;1.90;;;18.80;99.90;;;;;;5058586;28;20338;-77
2022/08/03 01:38:52;;;;;;;;;;;18.80;99.90;;;;;;5060083;28;20148;-77
2022/08/03 01:41:21;;;;;;;2.85;1.90;;;18.80;99.90;;;;;;5059122;28;20006;-78
2022/08/03 01:43:49;;;;;;;2.88;1.65;;;18.80;99.90;;;;;;5048144;28;20059;-79
2022/08/03 01:46:16;;;;;;;2.92;1.65;;;18.80;99.90;;;;;;5060001;28;20550;-79
2022/08/03 01:48:44;;;;;;;2.50;1.77;;;18.80;99.90;;;;;;5049282;28;20029;-79
2022/08/03 01:51:11;;;;;;;3.78;1.70;;;18.80;99.90;;;;;;5055586;28;20056;-79
2022/08/03 01:53:41;;;;;;;3.13;1.70;;;18.80;99.90;;;;;;5050355;28;20514;-78
2022/08/03 01:56:08;;;;;;;2.88;2.25;;;18.90;99.90;;;;;;5054893;28;20041;-78
2022/08/03 01:58:36;;;;;;;1.63;1.38;;;18.90;99.90;;;;;;5054435;28;20043;-79
2022/08/03 02:01:03;;;;;;;2.53;1.85;;;18.90;99.90;;;;;;5052085;28;20021;-79
2022/08/03 02:03:32;;;;;;;1.92;1.55;;;19.00;99.90;;;;;;5059816;28;20055;-79
2022/08/03 02:05:59;;;;;;;3.45;2.20;;;19.00;99.90;;;;;;5051840;28;20052;-78
2022/08/03 02:08:26;;;;;;;2.53;1.98;;;19.00;99.90;;;;;;5049855;28;20025;-78
2022/08/03 02:10:55;;;;;;;2.40;1.80;;;19.00;99.90;;;;;;5053968;28;20646;-80
2022/08/03 02:13:23;;;;;;;2.22;1.77;;;19.00;99.90;;;;;;5050307;28;20032;-80
2022/08/03 02:15:50;;;;;;;1.70;1.60;;;19.00;99.90;;;;;;5056100;28;20083;-79
2022/08/03 02:18:18;;;;;;;2.60;1.67;;;19.00;99.90;;;;;;5068096;28;20364;-79
2022/08/03 02:20:45;;;;;;;2.03;1.83;;;19.00;99.90;;;;;;5051645;28;20033;-80
2022/08/03 02:23:10;;;;;;;3.58;2.22;;;19.00;99.90;;;;;;5059680;28;20157;-79
2022/08/03 02:25:43;;;;;;;2.10;1.58;;;19.00;99.90;;;;;;5049490;28;20028;-79
2022/08/03 02:28:17;;;;;;;2.90;2.47;;;19.00;99.90;;;;;;5060354;28;20078;-79
2022/08/03 02:30:45;;;;;;;4.82;2.25;;;19.00;99.90;;;;;;5048532;28;20032;-79
2022/08/03 02:33:27;;;;;;;2.53;1.95;;;19.00;99.90;;;;;;5049593;28;20092;-79
2022/08/03 02:35:54;;;;;;;2.67;1.70;;;19.00;99.90;;;;;;5053873;28;20063;-79
2022/08/03 02:38:26;;;;;;;1.77;1.65;;;19.00;99.90;;;;;;5050403;28;20048;-79
2022/08/03 02:40:56;;;;;;;2.28;1.58;;;19.00;99.90;;;;;;5064200;28;20035;-79
2022/08/03 02:43:23;;;;;;;2.42;1.83;;;19.00;99.90;;;;;;5055366;28;20033;-79
2022/08/03 02:45:51;;;;;;;2.58;1.85;;;18.90;99.90;;;;;;5047999;28;20098;-78
2022/08/03 02:48:22;;;;;;;3.55;2.10;;;19.00;99.90;;;;;;5052026;28;20112;-79
2022/08/03 02:50:50;;;;;;;2.45;1.70;;;18.90;99.90;;;;;;5056541;28;20258;-79
2022/08/03 02:53:17;;;;;;;2.05;1.65;;;18.90;99.90;;;;;;5059527;28;20024;-79
2022/08/03 02:55:43;;;;;;;2.20;1.80;;;18.90;99.90;;;;;;5051444;28;20032;-80
2022/08/03 02:58:12;;;;;;;2.00;1.67;;;18.90;99.90;;;;;;5058332;28;20395;-79
2022/08/03 03:00:38;;;;;;;1.73;1.38;;;18.90;99.90;;;;;;5049479;28;20024;-79
2022/08/03 03:03:05;;;;;;;2.45;1.58;;;18.90;99.90;;;;;;5055429;28;20138;-79
2022/08/03 03:05:31;;;;;;;1.95;1.80;;;18.90;99.90;;;;;;5055518;28;20041;-78
2022/08/03 03:07:56;;;;;;;1.83;1.60;;;18.80;99.90;;;;;;5051385;28;20082;-79
2022/08/03 03:10:23;;;;;;;2.65;1.60;;;18.80;99.90;;;;;;5050049;28;20040;-79
2022/08/03 03:12:54;;;;;;;2.33;1.65;;;18.80;99.90;;;;;;5063616;28;20069;-79
2022/08/03 03:15:20;;;;;;;1.67;1.30;;;18.80;99.90;;;;;;5056099;28;20631;-79
2022/08/03 03:17:48;;;;;;;1.63;1.42;;;18.80;99.90;;;;;;5050057;28;20040;-79
2022/08/03 03:20:14;;;;;;;4.53;1.90;;;18.70;99.90;;;;;;5049342;28;20033;-79
2022/08/03 03:22:40;;;;;;;2.17;1.58;;;18.60;99.90;;;;;;5049021;28;20032;-79
2022/08/03 03:25:06;;;;;;;2.50;1.70;;;18.50;99.90;;;;;;5051042;28;20464;-77
2022/08/03 03:27:32;;;;;;;2.20;1.70;;;18.50;99.90;;;;;;5051274;28;20051;-79
2022/08/03 03:29:58;;;;;;;2.03;1.55;;;18.40;99.90;;;;;;5065324;28;20036;-79
2022/08/03 03:32:26;;;;;;;2.78;1.85;;;18.40;99.90;;;;;;5051510;28;20430;-78
2022/08/03 03:34:54;;;;;;;2.03;1.35;;;18.30;99.90;;;;;;5052409;28;20484;-78
2022/08/03 03:37:20;;;;;;;2.13;1.55;;;18.30;99.90;;;;;;5049921;28;20061;-77
2022/08/03 03:39:45;;;;;;;2.95;1.55;;;18.20;99.90;;;;;;5053622;28;20048;-77
2022/08/03 03:42:11;;;;;;;1.90;1.58;;;18.20;99.90;;;;;;5046246;28;20087;-78
2022/08/03 03:44:36;;;;;;;1.67;1.40;;;18.10;99.90;;;;;;5055453;28;20707;-78
2022/08/03 03:47:02;;;;;;;3.22;1.58;;;18.10;99.90;;;;;;5044558;28;20554;-78
2022/08/03 03:49:28;;;;;;;1.75;1.60;;;18.10;99.90;;;;;;5053674;28;20064;-77
2022/08/03 03:51:54;;;;;;;2.28;2.08;;;18.00;99.90;;;;;;5053212;28;20041;-78
2022/08/03 03:54:20;;;;;;;1.70;1.27;;;18.00;99.90;;;;;;5046682;28;20032;-79
2022/08/03 03:56:46;;;;;;;5.65;1.67;;;18.00;99.90;;;;;;5054395;28;20021;-76
2022/08/03 03:59:12;;;;;;;1.48;1.35;;;18.00;99.90;;;;;;5054434;28;20068;-78
2022/08/03 04:01:40;;;;;;;2.17;1.52;;;18.00;99.90;;;;;;5050085;28;20029;-79
2022/08/03 04:12:23;;;;;;;3.97;1.80;;;18.10;99.90;;;;;;5059859;28;20043;-78
2022/08/03 04:14:51;;;;;;;2.22;1.67;;;18.20;99.90;;;;;;5052781;28;20067;-78
2022/08/03 04:17:18;;;;;;;2.20;1.83;;;18.20;99.90;;;;;;5045767;28;20098;-79
2022/08/03 04:19:51;;;;;;;3.05;1.63;;;18.20;99.90;;;;;;5048436;28;20025;-78
2022/08/03 04:22:21;;;;;;;2.72;1.90;;;18.20;99.90;;;;;;5053200;28;20036;-77
2022/08/03 04:24:55;;;;;;;1.92;1.63;;;18.20;99.90;;;;;;5045393;28;20112;-78
2022/08/03 04:27:25;;;;;;;4.22;1.67;;;18.20;99.90;;;;;;5046789;28;20112;-77
2022/08/03 04:29:53;;;;;;;2.90;2.00;;;18.20;99.90;;;;;;5058087;28;20063;-78
2022/08/03 04:32:22;;;;;;;2.25;1.75;;;18.30;99.90;;;;;;5048047;28;20040;-78
2022/08/03 04:34:48;;;;;;;2.50;1.83;;;18.20;99.90;;;;;;5051032;28;20558;-78
2022/08/03 04:37:25;;;;;;;1.60;1.50;;;18.20;99.90;;;;;;5053994;28;20036;-78
2022/08/03 04:39:53;;;;;;;3.35;1.80;;;18.30;99.90;;;;;;5050453;28;20112;-78
2022/08/03 04:42:21;;;;;;;3.25;1.95;;;18.20;99.90;;;;;;5050963;28;20384;-79
2022/08/03 04:44:47;;;;;;;1.92;1.50;;;18.20;99.90;;;;;;5054112;28;20024;-77
2022/08/03 04:47:13;;;;;;;3.75;1.80;;;18.20;99.90;;;;;;5050832;28;20034;-77
2022/08/03 04:49:39;;;;;;;2.42;2.00;;;18.30;99.90;;;;;;5055299;28;20071;-80
2022/08/03 04:52:06;;;;;;;2.47;1.55;;;18.30;99.90;;;;;;5057138;28;20107;-80
2022/08/03 04:54:39;;;;;;;3.13;1.90;;;18.30;99.90;;;;;;5047787;28;20032;-77
2022/08/03 04:57:04;;;;;;;4.50;2.08;;;18.40;99.90;;;;;;5046555;28;20028;-80
2022/08/03 04:59:30;;;;;;;6.13;1.80;;;18.40;99.90;;;;;;5049475;28;20138;-79
2022/08/03 05:01:55;;;;;;;3.35;2.10;;;18.40;99.90;;;;;;5056789;28;20064;-79
2022/08/03 05:04:21;;;;;;;3.55;2.30;;;18.40;99.90;;;;;;5053200;28;20563;-79
2022/08/03 05:06:47;;;;;;;3.95;1.42;;;18.50;99.90;;;;;;5051948;28;20245;-79
2022/08/03 05:09:12;;;;;;;2.83;1.90;;;18.50;99.90;;;;;;5050827;28;20067;-79
2022/08/03 05:11:38;;;;;;;1.98;1.77;;;18.60;99.90;;;;;;5061181;28;20032;-78
2022/08/03 05:14:03;;;;;;;3.50;1.75;;;18.60;99.90;;;;;;5056211;28;20108;-76
2022/08/03 05:16:29;;;;;;;1.65;1.38;;;18.60;99.90;;;;;;5060938;28;20052;-78
2022/08/03 05:18:54;;;;;;;2.72;1.60;;;18.70;99.90;;;;;;5058084;28;20148;-77
2022/08/03 05:21:20;;;;;;;4.93;2.10;;;18.80;99.90;;;;;;5051432;28;20032;-79
2022/08/03 05:23:45;;;;;;;2.55;1.70;;;18.80;99.90;;;;;;5057779;28;20032;-78
2022/08/03 05:26:11;;;;;;;2.30;1.73;;;18.90;99.90;;;;;;5051239;28;20053;-81
2022/08/03 05:28:37;;;;;;;1.85;1.45;;;19.10;99.90;;;;;;5059980;28;20372;-82
2022/08/03 05:31:02;;;;;;;1.92;1.63;;;19.20;99.90;;;;;;5048929;28;20093;-78
2022/08/03 05:33:28;;;;;;;2.00;1.80;;;19.40;99.90;;;;;;5050973;28;20009;-78
2022/08/03 05:35:53;;;;;;;3.03;1.85;;;19.60;99.90;;;;;;5052654;28;20041;-78
2022/08/03 05:38:19;;;;;;;1.98;1.45;;;19.80;99.90;;;;;;5059697;28;20079;-78
2022/08/03 05:40:44;;;;;;;1.70;1.60;;;20.10;97.60;;;;;;5046048;28;20068;-78
2022/08/03 05:43:10;;;;;;;1.35;1.23;;;20.30;95.50;;;;;;5054332;28;20384;-78
2022/08/03 05:45:37;;;;;;;1.15;1.05;;;20.40;93.70;;;;;;5052988;28;20021;-78
2022/08/03 05:48:03;;;;;;;1.67;1.48;;;20.60;91.00;;;;;;5047276;28;20032;-77
2022/08/03 05:50:31;;;;;;;1.40;1.30;;;20.70;90.60;;;;;;5048989;28;20399;-76
2022/08/03 05:52:57;;;;;;;1.27;1.13;;;20.70;90.00;;;;;;5056747;28;20370;-76
2022/08/03 05:55:23;;;;;;;2.80;1.75;;;20.90;85.60;;;;;;5059091;28;20544;-75
2022/08/03 05:57:48;;;;;;;3.50;1.35;;;21.10;85.30;;;;;;5053850;28;20291;-74
2022/08/03 06:00:14;;;;;;;5.45;1.63;;;21.20;83.50;;;;;;5062660;28;20162;-76
2022/08/03 06:02:40;;;;;;;1.33;1.23;;;21.30;85.20;;;;;;5058561;28;20360;-76
2022/08/03 06:05:06;;;;;;;2.05;1.48;;;21.50;82.70;;;;;;5049125;28;20033;-74
2022/08/03 06:07:31;;;;;;;1.63;1.42;;;21.50;81.30;;;;;;5048357;28;20052;-74
2022/08/03 06:09:57;;;;;;;2.08;1.30;;;21.60;80.20;;;;;;5052627;28;20724;-74
2022/08/03 06:12:22;;;;;;;1.27;1.15;;;21.80;80.90;;;;;;5059731;28;20379;-75
2022/08/03 06:14:48;;;;;;;1.67;1.38;;;21.80;79.70;;;;;;5050985;28;20086;-75
2022/08/03 06:17:13;;;;;;;1.80;1.27;;;21.90;79.10;;;;;;5063744;28;20476;-85
2022/08/03 06:19:39;;;;;;;1.58;1.10;;;21.90;80.10;;;;;;5050617;28;20016;-79
2022/08/03 06:22:04;;;;;;;1.13;1.02;;;22.00;78.00;;;;;;5052407;28;20348;-79
2022/08/03 06:24:30;;;;;;;1.40;1.20;;;22.00;75.90;;;;;;5054298;28;20032;-81
2022/08/03 06:26:56;;;;;;;1.88;1.50;;;22.10;75.60;;;;;;5046918;28;20032;-79
2022/08/03 06:29:21;;;;;;;1.95;1.60;;;22.30;74.80;;;;;;5051175;28;20068;-78
2022/08/03 06:31:47;;;;;;;1.58;1.27;;;22.50;74.50;;;;;;5061156;28;20042;-79
2022/08/03 06:34:12;;;;;;;8.90;1.25;;;22.60;74.30;;;;;;5055880;28;20118;-78
2022/08/03 06:36:38;;;;;;;1.85;1.23;;;22.60;77.90;;;;;;5059598;28;20468;-87
2022/08/03 06:39:04;;;;;;;1.23;1.13;;;22.60;75.00;;;;;;5051417;28;20043;-86
2022/08/03 06:41:29;;;;;;;2.95;1.45;;;22.70;74.10;;;;;;5055722;28;20028;-89
2022/08/03 06:43:55;;;;;;;3.92;1.50;;;22.80;72.60;;;;;;5055253;28;20025;-86
2022/08/03 06:46:21;;;;;;;1.55;1.30;;;22.80;75.40;;;;;;5068984;28;20035;-84
2022/08/03 06:48:46;;;;;;;2.13;1.20;;;22.90;74.90;;;;;;5059767;28;20020;-82
2022/08/03 06:51:12;;;;;;;2.00;1.30;;;23.00;73.90;;;;;;5059376;28;20029;-87
2022/08/03 06:53:37;;;;;;;5.35;1.27;;;23.10;73.20;;;;;;5056363;28;20036;-81
2022/08/03 06:56:06;;;;;;;3.10;1.58;;;23.10;71.10;;;;;;5049819;28;20040;-84
2022/08/03 06:58:32;;;;;;;1.52;1.30;;;23.20;72.60;;;;;;5046710;28;20488;-79
2022/08/03 07:01:01;;;;;;;4.63;1.40;;;23.10;73.90;;;;;;5058068;28;20041;-89
2022/08/03 07:03:26;;;;;;;1.75;1.10;;;23.10;71.40;;;;;;5052001;28;20468;-80
2022/08/03 07:05:52;;;;;;;3.15;1.58;;;23.30;73.60;;;;;;5050027;28;20021;-79
2022/08/03 07:08:17;;;;;;;1.67;1.25;;;23.30;73.70;;;;;;5056678;28;20067;-82
2022/08/03 07:10:43;;;;;;;1.98;1.05;;;23.40;73.30;;;;;;5059906;28;20095;-81
2022/08/03 07:13:09;;;;;;;2.05;1.15;;;23.50;69.70;;;;;;5053463;28;20047;-85
2022/08/03 07:15:35;;;;;;;3.50;1.30;;;23.60;69.10;;;;;;5049158;28;20088;-79
2022/08/03 07:18:01;;;;;;;4.88;1.15;;;23.60;70.80;;;;;;5057994;28;20028;-86
2022/08/03 07:20:27;;;;;;;1.05;0.95;;;23.60;70.90;;;;;;5047941;28;20033;-82
2022/08/03 07:22:52;;;;;;;1.13;1.02;;;23.50;71.70;;;;;;5049492;28;20104;-90
2022/08/03 07:25:19;;;;;;;2.38;1.58;;;23.70;71.30;;;;;;5042709;28;20737;-83
2022/08/03 07:27:45;;;;;;;3.17;1.17;;;23.80;71.10;;;;;;5048848;28;20049;-83
2022/08/03 07:30:12;;;;;;;3.13;1.23;;;24.10;69.80;;;;;;5049211;28;20383;-80
2022/08/03 07:32:38;;;;;;;1.30;1.13;;;24.10;68.60;;;;;;5053218;28;20029;-82
2022/08/03 07:35:07;;;;;;;1.50;1.40;;;24.30;69.20;;;;;;5060395;28;20101;-87
2022/08/03 07:37:33;;;;;;;0.90;0.90;;;24.20;68.40;;;;;;5061145;28;20074;-89
2022/08/03 07:40:00;;;;;;;1.35;1.05;;;24.50;67.80;;;;;;5051284;28;20064;-93
2022/08/03 07:42:27;;;;;;;1.15;1.05;;;24.20;69.10;;;;;;5048793;28;20024;-79
2022/08/03 07:44:52;;;;;;;2.20;1.70;;;24.30;67.70;;;;;;5052750;28;20490;-79
2022/08/03 07:47:25;;;;;;;0.80;0.80;;;24.10;69.60;;;;;;5042955;28;20045;-89
2022/08/03 07:49:51;;;;;;;1.60;1.30;;;24.30;68.70;;;;;;5058272;28;20032;-78
2022/08/03 07:55:02;;;;;;;1.30;1.00;;;24.50;70.60;;;;;;5047072;28;20098;-80
2022/08/03 07:57:27;;;;;;;2.08;1.25;;;24.20;72.00;;;;;;5052950;28;20029;-87
2022/08/03 07:59:53;;;;;;;0.93;0.90;;;24.00;70.90;;;;;;5063173;28;20070;-89
2022/08/03 08:02:18;;;;;;;4.32;1.30;;;24.10;73.80;;;;;;5054192;28;20032;-87
2022/08/03 08:04:47;;;;;;;1.13;0.95;;;24.00;71.60;;;;;;5051103;28;20028;-84
2022/08/03 08:07:12;;;;;;;1.58;0.90;;;24.00;71.50;;;;;;5043996;28;20020;-85
2022/08/03 08:09:38;;;;;;;1.50;1.23;;;24.30;69.50;;;;;;5045384;28;20036;-78
2022/08/03 08:12:04;;;;;;;3.42;1.85;;;24.40;68.40;;;;;;5045951;28;20521;-79
2022/08/03 08:14:30;;;;;;;2.28;1.20;;;24.80;62.70;;;;;;5048124;28;20032;-78
2022/08/03 08:16:55;;;;;;;1.10;1.00;;;24.70;63.80;;;;;;5048237;28;20036;-78
2022/08/03 08:19:20;;;;;;;1.00;1.00;;;24.80;64.20;;;;;;5040343;28;20043;-77
2022/08/03 08:21:46;;;;;;;2.05;1.33;;;24.70;65.80;;;;;;5058201;28;20039;-77
2022/08/03 08:24:12;;;;;;;1.15;1.05;;;25.20;61.80;;;;;;5048559;28;20016;-77
2022/08/03 08:26:37;;;;;;;1.20;1.10;;;25.40;63.30;;;;;;5052294;28;20031;-78
2022/08/03 08:29:03;;;;;;;1.85;0.95;;;25.60;59.90;;;;;;5049305;28;20083;-77
2022/08/03 08:31:29;;;;;;;1.08;0.98;;;25.60;60.60;;;;;;5057600;28;20116;-76
2022/08/03 08:33:54;;;;;;;1.08;0.95;;;25.60;63.00;;;;;;5061639;28;20108;-77
2022/08/03 08:36:20;;;;;;;2.15;1.10;;;25.70;58.00;;;;;;5068946;28;20511;-76
2022/08/03 08:38:45;;;;;;;1.77;1.17;;;25.80;57.00;;;;;;5065315;28;20037;-77
2022/08/03 08:41:13;;;;;;;1.27;0.90;;;26.10;57.50;;;;;;5065285;28;20433;-78
2022/08/03 08:43:39;;;;;;;1.38;1.00;;;26.10;58.00;;;;;;5063066;28;20025;-77
2022/08/03 08:46:07;;;;;;;2.22;1.48;;;26.20;57.10;;;;;;5052816;28;20397;-76
2022/08/03 08:48:34;;;;;;;4.07;0.98;;;26.30;55.70;;;;;;5065661;28;20029;-76
2022/08/03 08:51:00;;;;;;;1.45;1.25;;;26.60;55.30;;;;;;5061752;28;20376;-74
2022/08/03 08:53:28;;;;;;;0.90;0.90;;;26.60;53.90;;;;;;5061123;28;20475;-80
2022/08/03 08:56:04;;;;;;;1.30;0.93;;;26.70;54.80;;;;;;5062271;28;20118;-76
2022/08/03 08:58:35;;;;;;;1.90;1.00;;;26.70;54.50;;;;;;5064973;28;20402;-78
2022/08/03 09:01:01;;;;;;;1.83;1.00;;;26.70;54.80;;;;;;5066322;28;20102;-80
2022/08/03 09:03:26;;;;;;;1.27;0.80;;;26.50;56.70;;;;;;5062039;28;20475;-80
2022/08/03 09:05:52;;;;;;;3.60;1.13;;;26.20;56.00;;;;;;5059751;28;20020;-78
2022/08/03 09:08:17;;;;;;;0.93;0.93;;;26.50;55.30;;;;;;5066707;28;20040;-78
2022/08/03 09:10:43;;;;;;;2.83;1.30;;;26.80;54.40;;;;;;5064645;28;20546;-77
2022/08/03 09:13:09;;;;;;;2.13;1.23;;;26.80;54.90;;;;;;5060357;28;20131;-79
2022/08/03 09:15:34;;;;;;;1.20;1.10;;;26.90;53.40;;;;;;5061712;28;20056;-78
2022/08/03 09:18:02;;;;;;;1.30;1.10;;;27.10;53.80;;;;;;5067005;28;20025;-77
2022/08/03 09:20:31;;;;;;;1.90;1.13;;;27.40;53.30;;;;;;5062375;28;20043;-79
2022/08/03 09:23:09;;;;;;;1.05;0.93;;;27.40;53.30;;;;;;5064343;28;20028;-79
2022/08/03 09:25:40;;;;;;;1.48;1.25;;;27.40;55.10;;;;;;5056827;28;20037;-76
2022/08/03 09:28:12;;;;;;;0.98;0.88;;;27.40;54.10;;;;;;5061386;28;20113;-79
2022/08/03 09:30:40;;;;;;;1.00;0.90;;;27.50;53.40;;;;;;5062805;28;20039;-76
2022/08/03 09:33:08;;;;;;;0.93;0.90;;;27.50;52.80;;;;;;5064415;28;20029;-79
2022/08/03 09:35:43;;;;;;;1.52;1.33;;;27.60;52.10;;;;;;5066343;28;20071;-79
2022/08/03 09:38:15;;;;;;;1.25;1.15;;;27.50;52.50;;;;;;5061273;28;20548;-78
2022/08/03 09:40:42;;;;;;;1.40;1.30;;;27.60;52.40;;;;;;5060302;28;20030;-77
2022/08/03 09:43:08;;;;;;;2.03;1.23;;;27.60;53.20;;;;;;5062595;28;20573;-79
2022/08/03 09:45:36;;;;;;;1.40;1.30;;;27.60;54.40;;;;;;5063154;28;20056;-77
2022/08/03 09:48:21;;;;;;;1.10;1.00;;;27.80;54.10;;;;;;5050428;28;20028;-77
2022/08/03 09:51:06;;;;;;;2.38;1.10;;;27.70;52.00;;;;;;5060454;28;20116;-78
2022/08/03 09:53:41;;;;;;;2.30;1.00;;;27.60;54.70;;;;;;5066365;28;20033;-77
2022/08/03 09:56:07;;;;;;;1.27;1.10;;;27.30;55.00;;;;;;5060257;28;20039;-79
2022/08/03 09:58:33;;;;;;;1.73;1.20;;;27.50;52.40;;;;;;5063315;28;20045;-76
2022/08/03 10:01:02;;;;;;;1.52;1.00;;;27.70;52.20;;;;;;5052059;28;20112;-76
2022/08/03 10:03:30;;;;;;;1.25;1.10;;;27.80;53.60;;;;;;5053490;28;20041;-77
2022/08/03 10:05:56;;;;;;;1.40;1.30;;;27.70;52.60;;;;;;5048066;28;20676;-76
2022/08/03 10:08:23;;;;;;;1.25;1.15;;;27.70;54.60;;;;;;5050934;28;20589;-77
2022/08/03 10:10:54;;;;;;;0.90;0.90;;;27.30;55.30;;;;;;5051755;28;20029;-77
2022/08/03 10:13:20;;;;;;;2.45;1.67;;;27.70;53.60;;;;;;5051275;28;20032;-79
2022/08/03 10:15:46;;;;;;;1.02;0.93;;;27.40;53.90;;;;;;5056316;28;20033;-79
2022/08/03 10:18:21;;;;;;;21.60;4.68;;;27.50;55.20;;;;;;5053192;28;20024;-77
2022/08/03 10:20:56;;;;;;;19.35;4.10;;;26.90;57.20;;;;;;5049089;28;20088;-78
2022/08/03 10:23:23;;;;;;;1.15;1.00;;;26.60;58.10;;;;;;5057284;28;20027;-77
2022/08/03 10:25:54;;;;;;;1.20;1.10;;;26.70;56.60;;;;;;5054624;28;20107;-76
2022/08/03 10:28:21;;;;;;;1.60;1.20;;;26.20;59.00;;;;;;5050381;28;20029;-75
2022/08/03 10:30:50;;;;;;;5.53;1.52;;;27.20;55.70;;;;;;5059484;28;20085;-76
2022/08/03 10:33:22;;;;;;;1.55;1.23;;;27.70;53.50;;;;;;5048451;28;20025;-77
2022/08/03 10:35:53;;;;;;;1.20;1.10;;;28.20;52.60;;;;;;5056504;28;20526;-77
2022/08/03 10:38:24;;;;;;;1.70;1.30;;;28.90;51.20;;;;;;5057181;28;20032;-77
2022/08/03 10:40:54;;;;;;;1.10;1.00;;;28.90;51.70;;;;;;5046887;28;20033;-80
2022/08/03 10:43:47;;;;;;;3.22;1.20;;;27.70;54.90;;;;;;5048953;28;20478;-76
2022/08/03 10:46:16;;;;;;;0.93;0.88;;;27.20;55.30;;;;;;5065675;28;20111;-78
2022/08/03 10:48:42;;;;;;;1.73;1.30;;;27.00;57.70;;;;;;5053302;28;20550;-76
2022/08/03 10:51:07;;;;;;;2.80;1.13;;;26.60;58.70;;;;;;5056883;28;20082;-76
2022/08/03 10:53:39;;;;;;;1.63;1.05;;;26.40;59.40;;;;;;5057607;28;20025;-76
2022/08/03 10:59:05;;;;;;;;;;;28.00;54.50;;;;;;5008757;28;20030;-78
2022/08/03 11:01:53;;;;;;;1.08;0.90;;;28.40;53.30;;;;;;5040166;28;20011;-79
2022/08/03 11:04:20;;;;;;;0.90;0.90;;;28.60;52.30;;;;;;5049052;28;20031;-79
2022/08/03 11:06:47;;;;;;;1.02;1.02;;;29.50;51.10;;;;;;5069958;28;20094;-78
2022/08/03 11:09:13;;;;;;;2.15;1.30;;;30.00;50.30;;;;;;5058897;28;20112;-77
2022/08/03 11:11:41;;;;;;;2.72;1.10;;;30.20;48.30;;;;;;5067500;28;20025;-80
2022/08/03 11:14:12;;;;;;;1.27;1.02;;;30.60;48.10;;;;;;5051071;28;20070;-79
2022/08/03 11:16:41;;;;;;;1.20;1.10;;;30.00;49.80;;;;;;5052274;28;20037;-76
2022/08/03 11:19:09;;;;;;;1.20;1.10;;;29.70;49.20;;;;;;5056616;28;20511;-77
2022/08/03 11:21:50;;;;;;;1.20;0.93;;;29.80;50.90;;;;;;5045786;28;20498;-77
2022/08/03 11:24:46;;;;;;;1.25;1.15;;;29.60;50.80;;;;;;5049157;28;20075;-78
2022/08/03 11:27:14;;;;;;;3.22;1.10;;;29.50;48.60;;;;;;5044542;28;20039;-76
2022/08/03 11:29:57;;;;;;;1.88;1.10;;;29.90;50.60;;;;;;5047548;28;20021;-76
2022/08/03 11:32:42;;;;;;;9.68;1.30;;;28.30;54.00;;;;;;5049405;28;20107;-76
2022/08/03 11:35:07;;;;;;;1.50;1.10;;;27.80;56.00;;;;;;5051870;28;20757;-77
2022/08/03 11:37:33;;;;;;;1.33;1.10;;;27.90;54.70;;;;;;5049778;28;20029;-75
2022/08/03 11:39:58;;;;;;;1.20;1.10;;;29.80;50.60;;;;;;5046189;28;20017;-75
2022/08/03 11:42:25;;;;;;;1.13;1.02;;;30.40;49.70;;;;;;5055235;28;20510;-76
2022/08/03 11:44:58;;;;;;;1.30;1.20;;;30.70;47.30;;;;;;5050087;28;20107;-76
2022/08/03 11:47:26;;;;;;;1.13;1.05;;;30.40;50.20;;;;;;5043823;28;20064;-76
2022/08/03 11:50:00;;;;;;;1.27;1.17;;;28.60;53.80;;;;;;5055070;28;20093;-74
2022/08/03 11:52:32;;;;;;;1.00;1.00;;;27.90;55.60;;;;;;5048628;28;20033;-75
2022/08/03 11:54:58;;;;;;;1.70;1.02;;;27.50;56.40;;;;;;5043999;28;20094;-75
2022/08/03 11:57:31;;;;;;;1.27;1.10;;;28.00;55.80;;;;;;5050659;28;20037;-74
2022/08/03 11:59:57;;;;;;;2.75;1.00;;;27.70;56.30;;;;;;5044380;28;20511;-77
2022/08/03 12:02:22;;;;;;;1.27;1.17;;;27.70;54.70;;;;;;5051146;28;20627;-79
2022/08/03 12:04:53;;;;;;;1.27;1.05;;;27.60;57.90;;;;;;5052882;28;20029;-77
2022/08/03 12:07:19;;;;;;;4.10;1.23;;;27.60;57.60;;;;;;5055091;28;20038;-77
2022/08/03 12:10:04;;;;;;;1.58;1.10;;;29.00;55.00;;;;;;5054822;28;20521;-75
2022/08/03 12:12:30;;;;;;;1.63;1.15;;;31.10;48.30;;;;;;5057869;28;20725;-77
2022/08/03 12:14:57;;;;;;;2.35;1.15;;;32.60;45.20;;;;;;5054586;28;20036;-77
2022/08/03 12:17:23;;;;;;;1.13;1.02;;;32.30;47.30;;;;;;5051802;28;20094;-76
2022/08/03 12:19:48;;;;;;;1.35;1.25;;;31.70;47.30;;;;;;5061617;28;20246;-75
2022/08/03 12:22:15;;;;;;;1.13;1.02;;;32.60;44.30;;;;;;5060931;28;20071;-77
2022/08/03 12:24:42;;;;;;;1.20;1.10;;;32.30;45.60;;;;;;5055520;28;20021;-78
2022/08/03 12:27:08;;;;;;;1.50;1.40;;;32.30;46.60;;;;;;5052438;28;20475;-78
2022/08/03 12:29:34;;;;;;;1.02;1.00;;;31.80;44.60;;;;;;5054924;28;20028;-78
2022/08/03 12:32:00;;;;;;;1.58;1.30;;;31.40;48.40;;;;;;5057937;28;20024;-77
2022/08/03 12:34:47;;;;;;;1.02;1.00;;;30.40;50.70;;;;;;5053124;28;20029;-76
2022/08/03 12:37:13;;;;;;;2.45;1.10;;;31.50;48.10;;;;;;5056568;28;20051;-77
2022/08/03 12:39:39;;;;;;;1.38;1.00;;;30.30;51.10;;;;;;5055134;28;20492;-76
2022/08/03 12:42:04;;;;;;;1.20;1.10;;;30.40;50.30;;;;;;5053325;28;20044;-79
2022/08/03 12:44:32;;;;;;;0.90;0.90;;;30.40;51.00;;;;;;5055045;28;20025;-79
2022/08/03 12:46:58;;;;;;;1.65;1.20;;;29.50;53.00;;;;;;5055282;28;20112;-78
2022/08/03 12:49:24;;;;;;;1.30;1.20;;;31.10;49.60;;;;;;5051230;28;20056;-78
2022/08/03 12:51:49;;;;;;;1.05;1.02;;;30.00;51.50;;;;;;5057166;28;20059;-74
2022/08/03 12:54:26;;;;;;;1.88;1.77;;;29.90;52.00;;;;;;5048709;28;20028;-76
2022/08/03 12:57:00;;;;;;;1.17;1.15;;;33.00;44.60;;;;;;5061747;28;20036;-76
2022/08/03 12:59:27;;;;;;;1.35;1.25;;;32.70;46.70;;;;;;5057291;28;20063;-77
2022/08/03 13:01:53;;;;;;;0.98;0.98;;;33.70;43.70;;;;;;5052225;28;20393;-78
2022/08/03 13:04:30;;;;;;;1.20;1.10;;;32.70;46.30;;;;;;5051833;28;20032;-76
2022/08/03 13:07:15;;;;;;;0.93;0.93;;;31.30;49.10;;;;;;5053918;28;20021;-76